createdAt,value
2018-10-06T00:02:10.635Z,13.90
2018-10-06T00:04:38.150Z,13.90
2018-10-06T00:07:05.994Z,14.10
2018-10-06T00:09:33.547Z,14.20
2018-10-06T00:12:01.048Z,14.30
2018-10-06T00:14:28.578Z,14.40
2018-10-06T00:16:56.332Z,14.50
2018-10-06T00:19:23.831Z,14.50
2018-10-06T00:21:51.361Z,14.60
2018-10-06T00:24:18.897Z,14.60
2018-10-06T00:26:46.401Z,14.60
2018-10-06T00:29:13.882Z,14.70
2018-10-06T00:31:41.587Z,14.70
2018-10-06T00:34:09.088Z,14.70
2018-10-06T00:36:36.590Z,14.70
2018-10-06T00:39:05.149Z,14.70
2018-10-06T00:41:32.661Z,14.70
2018-10-06T00:44:00.196Z,14.70
2018-10-06T00:46:27.741Z,14.70
2018-10-06T00:48:55.279Z,14.70
2018-10-06T00:51:22.830Z,14.70
2018-10-06T00:53:50.433Z,14.70
2018-10-06T00:56:17.967Z,14.70
2018-10-06T00:58:45.511Z,14.70
2018-10-06T01:01:13.015Z,14.70
2018-10-06T01:03:40.539Z,14.70
2018-10-06T01:06:08.068Z,14.60
2018-10-06T01:08:36.223Z,14.60
2018-10-06T01:11:03.778Z,14.60
2018-10-06T01:13:31.305Z,14.50
2018-10-06T01:15:59.173Z,14.50
2018-10-06T01:18:26.693Z,14.40
2018-10-06T01:20:54.208Z,14.40
2018-10-06T01:23:21.748Z,14.30
2018-10-06T01:25:49.258Z,14.30
2018-10-06T01:28:16.811Z,14.30
2018-10-06T01:30:44.342Z,14.30
2018-10-06T01:33:11.869Z,14.30
2018-10-06T01:35:39.436Z,14.40
2018-10-06T01:38:06.971Z,14.40
2018-10-06T01:40:34.465Z,14.40
2018-10-06T01:43:01.946Z,14.50
2018-10-06T01:45:29.481Z,14.50
2018-10-06T01:47:57.211Z,14.50
2018-10-06T01:50:24.726Z,14.40
2018-10-06T01:52:52.355Z,14.50
2018-10-06T01:55:20.083Z,14.50
2018-10-06T01:57:47.573Z,14.50
2018-10-06T02:00:15.165Z,14.50
2018-10-06T02:02:42.678Z,14.50
2018-10-06T02:05:10.188Z,14.40
2018-10-06T02:07:37.700Z,14.40
2018-10-06T02:10:05.307Z,14.30
2018-10-06T02:12:32.825Z,14.30
2018-10-06T02:15:00.366Z,14.30
2018-10-06T02:17:28.253Z,14.30
2018-10-06T02:19:55.735Z,14.30
2018-10-06T02:22:23.326Z,14.30
2018-10-06T02:24:50.970Z,14.20
2018-10-06T02:27:18.472Z,14.10
2018-10-06T02:29:45.967Z,14.10
2018-10-06T02:32:13.487Z,14.10
2018-10-06T02:34:40.989Z,14.00
2018-10-06T02:37:08.505Z,14.00
2018-10-06T02:39:36.055Z,14.00
2018-10-06T02:42:03.581Z,14.00
2018-10-06T02:44:31.217Z,13.90
2018-10-06T02:46:58.898Z,13.90
2018-10-06T02:49:26.412Z,13.80
2018-10-06T02:51:53.930Z,13.70
2018-10-06T02:54:21.733Z,13.70
2018-10-06T02:56:49.302Z,13.60
2018-10-06T02:59:16.858Z,13.70
2018-10-06T03:01:44.377Z,13.60
2018-10-06T03:04:11.901Z,13.50
2018-10-06T03:06:39.485Z,13.60
2018-10-06T03:09:07.807Z,13.60
2018-10-06T03:11:35.334Z,13.60
2018-10-06T03:14:02.917Z,13.60
2018-10-06T03:16:30.417Z,13.60
2018-10-06T03:18:57.978Z,13.60
2018-10-06T03:21:25.472Z,13.70
2018-10-06T03:23:52.981Z,13.70
2018-10-06T03:26:20.579Z,13.70
2018-10-06T03:28:48.159Z,13.80
2018-10-06T03:31:15.765Z,13.90
2018-10-06T03:33:43.322Z,13.90
2018-10-06T03:36:10.827Z,14.00
2018-10-06T03:38:38.365Z,14.10
2018-10-06T03:41:05.977Z,14.20
2018-10-06T03:43:33.497Z,14.30
2018-10-06T03:46:01.093Z,14.30
2018-10-06T03:48:28.594Z,14.30
2018-10-06T03:50:56.166Z,14.40
2018-10-06T03:53:23.663Z,14.40
2018-10-06T03:55:51.189Z,14.50
2018-10-06T03:58:18.933Z,14.40
2018-10-06T04:00:46.487Z,14.50
2018-10-06T04:03:14.066Z,14.50
2018-10-06T04:05:41.769Z,14.50
2018-10-06T04:08:09.269Z,14.50
2018-10-06T04:10:36.787Z,14.50
2018-10-06T04:13:04.303Z,14.40
2018-10-06T04:15:31.855Z,14.40
2018-10-06T04:17:59.423Z,14.40
2018-10-06T04:20:26.952Z,14.40
2018-10-06T04:22:54.460Z,14.40
2018-10-06T04:25:21.974Z,14.30
2018-10-06T04:27:49.533Z,14.30
2018-10-06T04:30:17.034Z,14.30
2018-10-06T04:32:44.542Z,14.30
2018-10-06T04:35:12.362Z,14.30
2018-10-06T04:37:39.884Z,14.30
2018-10-06T04:40:07.410Z,14.30
2018-10-06T04:42:35.243Z,14.30
2018-10-06T04:45:02.756Z,14.20
2018-10-06T04:47:30.260Z,14.20
2018-10-06T04:49:57.946Z,14.20
2018-10-06T04:52:25.456Z,14.10
2018-10-06T04:54:52.968Z,14.10
2018-10-06T04:57:20.725Z,14.00
2018-10-06T04:59:48.250Z,13.90
2018-10-06T05:02:15.765Z,13.90
2018-10-06T05:04:43.482Z,13.90
2018-10-06T05:07:10.968Z,13.90
2018-10-06T05:12:12.716Z,13.90
2018-10-06T05:14:40.242Z,13.80
2018-10-06T05:17:07.783Z,13.70
2018-10-06T05:19:35.280Z,13.70
2018-10-06T05:22:02.792Z,13.70
2018-10-06T05:24:30.363Z,13.70
2018-10-06T05:26:57.863Z,13.60
2018-10-06T05:29:25.397Z,13.60
2018-10-06T05:31:52.997Z,13.60
2018-10-06T05:34:20.806Z,13.60
2018-10-06T05:36:48.325Z,13.50
2018-10-06T05:39:15.866Z,13.50
2018-10-06T05:41:43.389Z,13.40
2018-10-06T05:44:10.909Z,13.40
2018-10-06T05:46:38.570Z,13.30
2018-10-06T05:49:06.015Z,13.30
2018-10-06T05:51:33.561Z,13.30
2018-10-06T05:54:01.063Z,13.20
2018-10-06T05:56:28.596Z,13.20
2018-10-06T05:58:56.174Z,13.10
2018-10-06T06:01:23.749Z,13.00
2018-10-06T06:03:51.276Z,12.90
2018-10-06T06:06:18.808Z,12.90
2018-10-06T06:08:46.323Z,12.80
2018-10-06T06:11:13.841Z,12.90
2018-10-06T06:13:41.370Z,12.90
2018-10-06T06:16:08.906Z,13.00
2018-10-06T06:18:36.691Z,13.00
2018-10-06T06:21:04.216Z,13.10
2018-10-06T06:23:31.730Z,13.10
2018-10-06T06:25:59.348Z,13.10
2018-10-06T06:28:26.909Z,13.10
2018-10-06T06:30:54.451Z,13.20
2018-10-06T06:33:21.971Z,13.20
2018-10-06T06:35:49.566Z,13.30
2018-10-06T06:38:17.163Z,13.40
2018-10-06T06:40:44.923Z,13.50
2018-10-06T06:43:12.449Z,13.50
2018-10-06T06:45:40.007Z,13.60
2018-10-06T06:48:07.537Z,13.70
2018-10-06T06:50:35.067Z,13.80
2018-10-06T06:53:02.611Z,13.90
2018-10-06T06:55:30.163Z,14.00
2018-10-06T06:57:57.690Z,14.10
2018-10-06T07:00:25.225Z,14.10
2018-10-06T07:02:52.753Z,14.20
2018-10-06T07:05:22.924Z,14.30
2018-10-06T07:07:51.094Z,14.30
2018-10-06T07:10:18.737Z,14.40
2018-10-06T07:12:46.326Z,14.40
2018-10-06T07:15:13.973Z,14.50
2018-10-06T07:17:41.503Z,14.50
2018-10-06T07:20:09.021Z,14.50
2018-10-06T07:22:36.567Z,14.60
2018-10-06T07:25:04.107Z,14.70
2018-10-06T07:27:31.669Z,14.70
2018-10-06T07:29:59.264Z,14.80
2018-10-06T07:32:26.833Z,14.90
2018-10-06T07:34:54.323Z,14.90
2018-10-06T07:37:21.857Z,15.00
2018-10-06T07:39:49.407Z,15.00
2018-10-06T07:42:16.912Z,15.10
2018-10-06T07:44:44.436Z,15.20
2018-10-06T07:47:12.182Z,15.20
2018-10-06T07:49:39.707Z,15.30
2018-10-06T07:52:07.215Z,15.40
2018-10-06T07:54:34.964Z,15.40
2018-10-06T07:57:02.597Z,15.50
2018-10-06T07:59:30.108Z,15.60
2018-10-06T08:01:58.144Z,15.70
2018-10-06T08:04:25.694Z,15.70
2018-10-06T08:06:53.442Z,15.80
2018-10-06T08:09:20.964Z,15.90
2018-10-06T08:11:48.634Z,16.00
2018-10-06T08:14:16.369Z,16.00
2018-10-06T08:16:44.216Z,16.10
2018-10-06T08:19:12.020Z,16.10
2018-10-06T08:21:39.989Z,16.20
2018-10-06T08:24:07.750Z,16.30
2018-10-06T08:26:35.305Z,16.40
2018-10-06T08:29:02.874Z,16.50
2018-10-06T08:31:30.582Z,16.60
2018-10-06T08:33:58.188Z,16.70
2018-10-06T08:36:25.781Z,16.80
2018-10-06T08:38:53.521Z,16.90
2018-10-06T08:41:21.182Z,17.00
2018-10-06T08:43:48.940Z,17.10
2018-10-06T08:46:16.579Z,17.20
2018-10-06T08:48:44.323Z,17.40
2018-10-06T08:51:11.918Z,17.50
2018-10-06T08:53:39.479Z,17.60
2018-10-06T08:56:07.089Z,17.70
2018-10-06T08:58:34.680Z,18.00
2018-10-06T09:01:02.381Z,18.10
2018-10-06T09:03:30.022Z,18.20
2018-10-06T09:05:58.584Z,18.20
2018-10-06T09:08:26.289Z,18.50
2018-10-06T09:10:54.086Z,18.80
2018-10-06T09:13:21.962Z,19.00
2018-10-06T09:15:50.342Z,19.00
2018-10-06T09:18:17.849Z,19.20
2018-10-06T09:20:45.356Z,19.10
2018-10-06T09:23:13.340Z,19.00
2018-10-06T09:25:41.084Z,18.90
2018-10-06T09:28:08.632Z,18.90
2018-10-06T09:30:42.304Z,18.90
2018-10-06T09:33:10.082Z,18.90
2018-10-06T09:35:37.706Z,18.90
2018-10-06T09:38:05.466Z,18.90
2018-10-06T09:40:32.986Z,18.90
2018-10-06T09:43:01.072Z,18.80
2018-10-06T09:45:28.603Z,18.70
2018-10-06T09:47:56.333Z,18.80
2018-10-06T09:50:24.049Z,19.00
2018-10-06T09:52:51.974Z,19.10
2018-10-06T09:55:20.481Z,19.50
2018-10-06T09:57:48.000Z,20.00
2018-10-06T10:00:20.052Z,20.20
2018-10-06T10:02:53.145Z,20.20
2018-10-06T10:05:26.377Z,20.20
2018-10-06T10:07:53.999Z,20.20
2018-10-06T10:10:23.410Z,20.20
2018-10-06T10:12:51.359Z,20.70
2018-10-06T10:15:19.232Z,21.00
2018-10-06T10:17:47.977Z,21.40
2018-10-06T10:20:16.266Z,21.80
2018-10-06T10:22:43.856Z,22.00
2018-10-06T10:25:11.470Z,22.30
2018-10-06T10:27:39.213Z,22.60
2018-10-06T10:30:07.188Z,22.90
2018-10-06T10:32:34.669Z,23.10
2018-10-06T10:35:02.225Z,23.30
2018-10-06T10:37:30.214Z,23.30
2018-10-06T10:39:58.003Z,23.50
2018-10-06T10:42:26.044Z,23.80
2018-10-06T10:44:53.567Z,24.20
2018-10-06T10:47:21.272Z,24.50
2018-10-06T10:49:49.040Z,24.70
2018-10-06T10:52:16.803Z,24.80
2018-10-06T10:54:44.675Z,24.70
2018-10-06T10:57:12.890Z,24.90
2018-10-06T10:59:40.642Z,25.10
2018-10-06T11:02:08.555Z,25.50
2018-10-06T11:04:36.541Z,25.70
2018-10-06T11:07:04.062Z,25.70
2018-10-06T11:09:31.653Z,25.90
2018-10-06T11:11:59.217Z,26.10
2018-10-06T11:14:26.723Z,26.00
2018-10-06T11:16:54.295Z,25.90
2018-10-06T11:19:24.498Z,26.00
2018-10-06T11:21:52.035Z,26.00
2018-10-06T11:24:19.973Z,25.80
2018-10-06T11:26:47.557Z,26.10
2018-10-06T11:29:15.053Z,26.20
2018-10-06T11:31:42.570Z,26.20
2018-10-06T11:34:11.105Z,26.40
2018-10-06T11:36:38.639Z,26.50
2018-10-06T11:39:07.629Z,26.70
2018-10-06T11:41:35.343Z,26.80
2018-10-06T11:44:02.853Z,27.10
2018-10-06T11:46:30.427Z,27.10
2018-10-06T11:48:58.177Z,27.10
2018-10-06T11:51:25.733Z,27.30
2018-10-06T11:53:53.249Z,27.40
2018-10-06T11:56:20.793Z,27.60
2018-10-06T11:58:48.315Z,27.60
2018-10-06T12:01:15.877Z,27.90
2018-10-06T12:03:45.765Z,27.90
2018-10-06T12:06:13.307Z,28.20
2018-10-06T12:08:40.866Z,28.20
2018-10-06T12:11:08.395Z,28.20
2018-10-06T12:13:35.912Z,28.20
2018-10-06T12:16:03.527Z,28.30
2018-10-06T12:18:31.040Z,28.50
2018-10-06T12:20:58.793Z,28.60
2018-10-06T12:23:27.297Z,29.00
2018-10-06T12:25:55.918Z,29.30
2018-10-06T12:28:23.596Z,29.40
2018-10-06T12:30:51.416Z,29.60
2018-10-06T12:33:18.965Z,29.70
2018-10-06T12:35:46.562Z,30.20
2018-10-06T12:38:14.145Z,30.30
2018-10-06T12:40:41.653Z,30.60
2018-10-06T12:43:09.197Z,30.60
2018-10-06T12:45:36.738Z,30.70
2018-10-06T12:48:04.815Z,30.70
2018-10-06T12:50:33.813Z,30.80
2018-10-06T12:53:02.931Z,31.10
2018-10-06T12:55:30.536Z,31.10
2018-10-06T12:57:58.069Z,31.50
2018-10-06T13:00:25.826Z,31.60
2018-10-06T13:02:53.331Z,31.60
2018-10-06T13:05:20.864Z,31.60
2018-10-06T13:07:48.688Z,31.80
2018-10-06T13:10:16.226Z,32.10
2018-10-06T13:12:44.366Z,31.60
2018-10-06T13:15:11.904Z,32.00
2018-10-06T13:17:39.420Z,32.40
2018-10-06T13:20:08.603Z,32.60
2018-10-06T13:22:36.091Z,32.70
2018-10-06T13:25:03.650Z,32.70
2018-10-06T13:27:31.186Z,32.30
2018-10-06T13:29:58.722Z,32.50
2018-10-06T13:32:26.269Z,32.70
2018-10-06T13:34:54.793Z,32.80
2018-10-06T13:37:22.338Z,32.50
2018-10-06T13:39:49.874Z,32.90
2018-10-06T13:42:17.376Z,32.90
2018-10-06T13:44:44.906Z,32.90
2018-10-06T13:47:12.452Z,32.90
2018-10-06T13:49:40.262Z,33.20
2018-10-06T13:52:07.842Z,33.10
2018-10-06T13:54:35.356Z,32.10
2018-10-06T13:57:03.153Z,31.10
2018-10-06T13:59:30.728Z,30.60
2018-10-06T14:01:58.260Z,30.80
2018-10-06T14:04:25.809Z,30.40
2018-10-06T14:06:54.488Z,29.90
2018-10-06T14:09:22.006Z,29.60
2018-10-06T14:11:50.368Z,29.40
2018-10-06T14:14:17.900Z,29.20
2018-10-06T14:16:45.472Z,29.50
2018-10-06T14:19:12.972Z,29.40
2018-10-06T14:21:40.511Z,29.50
2018-10-06T14:24:08.262Z,28.80
2018-10-06T14:26:35.841Z,28.30
2018-10-06T14:29:04.348Z,28.10
2018-10-06T14:31:32.678Z,27.80
2018-10-06T14:34:01.494Z,27.50
2018-10-06T14:36:29.048Z,27.30
2018-10-06T14:38:56.631Z,27.10
2018-10-06T14:41:24.341Z,26.70
2018-10-06T14:43:51.842Z,26.40
2018-10-06T14:46:19.410Z,26.20
2018-10-06T14:48:46.949Z,26.00
2018-10-06T14:51:14.463Z,26.00
2018-10-06T14:53:42.005Z,25.90
2018-10-06T14:56:09.552Z,26.20
2018-10-06T14:58:37.147Z,26.00
2018-10-06T15:01:04.745Z,25.90
2018-10-06T15:03:32.307Z,26.00
2018-10-06T15:06:00.358Z,26.00
2018-10-06T15:08:29.051Z,26.20
2018-10-06T15:10:56.571Z,26.00
2018-10-06T15:13:24.063Z,25.90
2018-10-06T15:15:51.629Z,25.70
2018-10-06T15:18:19.167Z,25.50
2018-10-06T15:20:46.669Z,25.40
2018-10-06T15:23:14.253Z,25.30
2018-10-06T15:25:42.814Z,25.40
2018-10-06T15:28:11.361Z,25.40
2018-10-06T15:30:38.911Z,25.30
2018-10-06T15:33:06.612Z,25.20
2018-10-06T15:35:34.158Z,25.10
2018-10-06T15:38:01.682Z,25.00
2018-10-06T15:40:29.246Z,25.00
2018-10-06T15:42:56.945Z,24.80
2018-10-06T15:45:24.372Z,24.70
2018-10-06T15:47:52.453Z,24.70
2018-10-06T15:50:19.987Z,24.60
2018-10-06T15:52:48.135Z,24.40
2018-10-06T15:55:15.667Z,24.30
2018-10-06T15:57:43.711Z,24.10
2018-10-06T16:00:11.467Z,24.10
2018-10-06T16:02:39.041Z,23.90
2018-10-06T16:05:06.602Z,23.70
2018-10-06T16:07:35.594Z,23.50
2018-10-06T16:10:03.623Z,23.40
2018-10-06T16:12:31.187Z,23.40
2018-10-06T16:14:58.698Z,23.30
2018-10-06T16:17:26.218Z,23.20
2018-10-06T16:19:53.745Z,23.10
2018-10-06T16:22:21.286Z,23.00
2018-10-06T16:24:48.846Z,22.80
2018-10-06T16:27:16.995Z,22.80
2018-10-06T16:29:44.741Z,22.70
2018-10-06T16:32:12.285Z,22.60
2018-10-06T16:34:39.793Z,22.50
2018-10-06T16:37:08.944Z,22.40
2018-10-06T16:39:37.358Z,22.30
2018-10-06T16:42:06.273Z,22.20
2018-10-06T16:44:33.836Z,22.10
2018-10-06T16:47:01.333Z,22.00
2018-10-06T16:49:29.022Z,21.90
2018-10-06T16:51:57.533Z,21.80
2018-10-06T16:54:25.046Z,21.80
2018-10-06T16:56:52.865Z,21.80
2018-10-06T16:59:20.403Z,21.70
2018-10-06T17:01:48.015Z,21.50
2018-10-06T17:04:17.471Z,21.40
2018-10-06T17:06:45.033Z,21.30
2018-10-06T17:09:12.577Z,21.30
2018-10-06T17:11:40.101Z,21.20
2018-10-06T17:14:08.277Z,21.00
2018-10-06T17:16:36.165Z,20.90
2018-10-06T17:19:04.677Z,20.90
2018-10-06T17:21:32.356Z,21.00
2018-10-06T17:24:00.477Z,20.90
2018-10-06T17:26:29.023Z,20.90
2018-10-06T17:28:56.553Z,20.80
2018-10-06T17:31:24.202Z,20.80
2018-10-06T17:33:51.707Z,20.70
2018-10-06T17:36:19.523Z,20.60
2018-10-06T17:38:47.810Z,20.50
2018-10-06T17:41:15.402Z,20.30
2018-10-06T17:43:43.007Z,20.30
2018-10-06T17:46:10.791Z,20.10
2018-10-06T17:48:38.455Z,20.10
2018-10-06T17:51:06.191Z,20.20
2018-10-06T17:53:33.790Z,20.20
2018-10-06T17:56:01.707Z,20.10
2018-10-06T17:58:29.311Z,20.00
2018-10-06T18:00:56.810Z,20.00
2018-10-06T18:03:25.218Z,20.00
2018-10-06T18:05:52.770Z,19.90
2018-10-06T18:08:20.273Z,20.00
2018-10-06T18:10:49.313Z,19.90
2018-10-06T18:13:16.942Z,19.90
2018-10-06T18:15:44.492Z,19.90
2018-10-06T18:18:12.667Z,19.90
2018-10-06T18:20:41.885Z,19.90
2018-10-06T18:23:09.709Z,19.80
2018-10-06T18:25:37.910Z,19.70
2018-10-06T18:28:05.462Z,19.60
2018-10-06T18:30:33.300Z,19.40
2018-10-06T18:33:01.064Z,19.30
2018-10-06T18:35:28.596Z,19.20
2018-10-06T18:37:56.918Z,19.20
2018-10-06T18:40:24.505Z,19.20
2018-10-06T18:42:52.851Z,19.20
2018-10-06T18:45:20.716Z,19.10
2018-10-06T18:47:48.954Z,18.90
2018-10-06T18:50:16.497Z,18.80
2018-10-06T18:52:44.930Z,18.70
2018-10-06T18:55:15.101Z,18.70
2018-10-06T18:57:42.662Z,18.70
2018-10-06T19:00:16.624Z,18.70
2018-10-06T19:02:44.189Z,18.60
2018-10-06T19:05:12.906Z,18.50
2018-10-06T19:07:40.409Z,18.20
2018-10-06T19:10:08.056Z,18.20
2018-10-06T19:12:35.497Z,18.20
2018-10-06T19:15:03.016Z,18.20
2018-10-06T19:17:30.539Z,18.20
2018-10-06T19:19:58.078Z,18.20
2018-10-06T19:22:25.853Z,18.20
2018-10-06T19:24:53.396Z,18.20
2018-10-06T19:27:21.231Z,18.20
2018-10-06T19:29:48.775Z,18.20
2018-10-06T19:32:16.507Z,18.20
2018-10-06T19:34:44.072Z,18.20
2018-10-06T19:37:11.604Z,18.20
2018-10-06T19:39:39.170Z,18.20
2018-10-06T19:42:06.736Z,18.20
2018-10-06T19:44:34.248Z,18.10
2018-10-06T19:47:01.890Z,18.00
2018-10-06T19:49:29.619Z,18.00
2018-10-06T19:51:57.112Z,18.00
2018-10-06T19:54:25.496Z,18.00
2018-10-06T19:56:53.015Z,17.90
2018-10-06T19:59:20.520Z,17.80
2018-10-06T20:01:48.027Z,17.80
2018-10-06T20:04:15.628Z,17.70
2018-10-06T20:06:43.158Z,17.70
2018-10-06T20:09:11.184Z,17.60
2018-10-06T20:11:39.059Z,17.60
2018-10-06T20:14:06.577Z,17.60
2018-10-06T20:16:34.357Z,17.60
2018-10-06T20:19:01.908Z,17.60
2018-10-06T20:21:29.590Z,17.60
2018-10-06T20:23:57.173Z,17.60
2018-10-06T20:26:24.719Z,17.60
2018-10-06T20:28:52.251Z,17.60
2018-10-06T20:31:20.263Z,17.60
2018-10-06T20:33:48.034Z,17.60
2018-10-06T20:36:15.571Z,17.50
2018-10-06T20:38:43.089Z,17.50
2018-10-06T20:41:10.655Z,17.50
2018-10-06T20:43:38.176Z,17.50
2018-10-06T20:46:05.702Z,17.50
2018-10-06T20:48:33.209Z,17.50
2018-10-06T20:51:00.722Z,17.40
2018-10-06T20:53:28.374Z,17.40
2018-10-06T20:55:55.902Z,17.40
2018-10-06T20:58:23.467Z,17.40
2018-10-06T21:00:50.977Z,17.30
2018-10-06T21:03:18.487Z,17.30
2018-10-06T21:05:46.201Z,17.30
2018-10-06T21:08:13.724Z,17.20
2018-10-06T21:10:41.493Z,17.30
2018-10-06T21:13:09.262Z,17.30
2018-10-06T21:15:36.996Z,17.20
2018-10-06T21:18:04.541Z,17.20
2018-10-06T21:20:32.075Z,17.20
2018-10-06T21:22:59.596Z,17.10
2018-10-06T21:25:27.152Z,17.10
2018-10-06T21:27:54.711Z,17.10
2018-10-06T21:30:22.232Z,17.20
2018-10-06T21:32:50.880Z,17.20
2018-10-06T21:35:18.714Z,17.10
2018-10-06T21:37:46.218Z,17.00
2018-10-06T21:40:13.752Z,17.00
2018-10-06T21:42:41.318Z,17.00
2018-10-06T21:45:08.830Z,17.10
2018-10-06T21:47:36.393Z,17.20
2018-10-06T21:50:03.928Z,17.20
2018-10-06T21:52:31.454Z,17.20
2018-10-06T21:54:59.098Z,17.20
2018-10-06T21:57:26.693Z,17.20
2018-10-06T21:59:54.210Z,17.30
2018-10-06T22:02:22.364Z,17.30
2018-10-06T22:04:49.950Z,17.20
2018-10-06T22:07:17.474Z,17.30
2018-10-06T22:09:45.913Z,17.20
2018-10-06T22:12:13.480Z,17.20
2018-10-06T22:14:41.000Z,17.30
2018-10-06T22:17:08.610Z,17.20
2018-10-06T22:19:36.139Z,17.20
2018-10-06T22:22:03.735Z,17.10
2018-10-06T22:24:31.256Z,17.20
2018-10-06T22:26:58.792Z,17.20
2018-10-06T22:29:26.318Z,17.20
2018-10-06T22:31:53.844Z,17.10
2018-10-06T22:34:21.366Z,17.10
2018-10-06T22:36:48.900Z,17.20
2018-10-06T22:39:16.450Z,17.10
2018-10-06T22:41:43.937Z,17.10
2018-10-06T22:44:11.485Z,17.10
2018-10-06T22:46:39.026Z,17.20
2018-10-06T22:49:06.533Z,17.10
2018-10-06T22:51:34.224Z,17.10
2018-10-06T22:54:01.726Z,17.10
2018-10-06T22:56:29.228Z,17.10
2018-10-06T22:58:56.761Z,17.00
2018-10-06T23:01:24.325Z,17.00
2018-10-06T23:03:51.895Z,17.00
2018-10-06T23:06:19.447Z,17.00
2018-10-06T23:08:46.966Z,17.00
2018-10-06T23:11:14.518Z,17.00
2018-10-06T23:13:42.030Z,16.90
2018-10-06T23:16:09.548Z,16.90
2018-10-06T23:18:37.066Z,16.90
2018-10-06T23:21:04.596Z,16.80
2018-10-06T23:23:32.349Z,16.70
2018-10-06T23:25:59.903Z,16.80
2018-10-06T23:28:27.367Z,16.80
2018-10-06T23:30:54.914Z,16.70
2018-10-06T23:33:22.410Z,16.80
2018-10-06T23:35:49.941Z,16.80
2018-10-06T23:38:17.683Z,16.80
2018-10-06T23:40:45.204Z,16.70
2018-10-06T23:43:12.756Z,16.80
2018-10-06T23:45:40.277Z,16.70
2018-10-06T23:48:07.771Z,16.50
2018-10-06T23:50:35.305Z,16.40
2018-10-06T23:53:02.835Z,16.40
2018-10-06T23:55:30.357Z,16.40
2018-10-06T23:57:58.083Z,16.20
